RYR88MT LGRP-EPMO
Flight info
| Callsign | RYR88MT |
|---|---|
| Flight time | 2h 41m |
| Altitude | 38000 |
| Route | VANES UM601 ADESO UN133 ATFIR DCT LOMOS DCT BUDOP DCT KELEL/N0438F390 DCT ORTEB/N0438F380 DCT KONZI DCT LOGDA |
| Aircraft | B738/M-SDE3FGILRWY/SB1 |
Departure
| Time | 2026-04-25 15:32 |
|---|---|
| Airport | Rhodes International Airport "Diagoras" (LGRP) |
Arrival
| Time | 2026-04-25 18:14 |
|---|---|
| Airport | Warsaw Modlin Airport (EPMO) |
| Time | Latitude | Longitude | Altitude | Speed | Heading |
|---|---|---|---|---|---|
| 2026-04-25 15:11 | 36.40366 | 28.09137 | 27 ft | 0 kts | 160° |
| 2026-04-25 15:21 | 36.40374 | 28.09134 | 27 ft | 3 kts | 160° |
| 2026-04-25 15:22 | 36.40392 | 28.09125 | 27 ft | 3 kts | 160° |
| 2026-04-25 15:22 | 36.40408 | 28.09118 | 27 ft | 3 kts | 168° |
| 2026-04-25 15:22 | 36.40425 | 28.09117 | 27 ft | 3 kts | 212° |
| 2026-04-25 15:22 | 36.40437 | 28.09133 | 27 ft | 3 kts | 247° |
| 2026-04-25 15:23 | 36.40441 | 28.09147 | 27 ft | 1 kts | 250° |
| 2026-04-25 15:23 | 36.40442 | 28.09150 | 27 ft | 0 kts | 250° |
| 2026-04-25 15:26 | 36.40430 | 28.09106 | 27 ft | 10 kts | 249° |
| 2026-04-25 15:27 | 36.40401 | 28.08993 | 27 ft | 16 kts | 260° |
| 2026-04-25 15:27 | 36.40401 | 28.08854 | 27 ft | 17 kts | 276° |
| 2026-04-25 15:27 | 36.40323 | 28.08506 | 27 ft | 29 kts | 250° |
| 2026-04-25 15:28 | 36.40252 | 28.08265 | 27 ft | 30 kts | 250° |
| 2026-04-25 15:28 | 36.40181 | 28.08021 | 27 ft | 31 kts | 250° |
| 2026-04-25 15:28 | 36.40101 | 28.07750 | 27 ft | 33 kts | 250° |
| 2026-04-25 15:28 | 36.40033 | 28.07520 | 27 ft | 27 kts | 250° |
| 2026-04-25 15:29 | 36.39971 | 28.07308 | 26 ft | 25 kts | 251° |
| 2026-04-25 15:29 | 36.39913 | 28.07110 | 27 ft | 22 kts | 250° |
| 2026-04-25 15:29 | 36.39907 | 28.06960 | 27 ft | 14 kts | 325° |
| 2026-04-25 15:29 | 36.39945 | 28.06943 | 27 ft | 0 kts | 342° |
| 2026-04-25 15:31 | 36.39972 | 28.06932 | 27 ft | 9 kts | 342° |
| 2026-04-25 15:31 | 36.40032 | 28.06914 | 28 ft | 6 kts | 8° |
| 2026-04-25 15:31 | 36.40050 | 28.06956 | 27 ft | 6 kts | 70° |
| 2026-04-25 15:31 | 36.40084 | 28.07069 | 29 ft | 39 kts | 70° |
| 2026-04-25 15:32 | 36.40278 | 28.07731 | 27 ft | 122 kts | 70° |
| 2026-04-25 15:32 | 36.40646 | 28.08968 | 254 ft | 169 kts | 69° |
| 2026-04-25 15:32 | 36.41056 | 28.10374 | 1177 ft | 176 kts | 71° |
| 2026-04-25 15:33 | 36.41885 | 28.13218 | 2910 ft | 185 kts | 72° |
| 2026-04-25 15:33 | 36.42457 | 28.14763 | 3249 ft | 213 kts | 52° |
| 2026-04-25 15:33 | 36.43821 | 28.15746 | 3498 ft | 250 kts | 15° |
| 2026-04-25 15:33 | 36.45631 | 28.15623 | 4046 ft | 274 kts | 345° |
| 2026-04-25 15:34 | 36.47301 | 28.14407 | 4820 ft | 286 kts | 316° |
| 2026-04-25 15:34 | 36.48327 | 28.12286 | 5618 ft | 291 kts | 282° |
| 2026-04-25 15:34 | 36.48319 | 28.09822 | 6448 ft | 285 kts | 250° |
| 2026-04-25 15:34 | 36.47907 | 28.08282 | 7044 ft | 282 kts | 245° |
| 2026-04-25 15:35 | 36.46269 | 28.02893 | 9026 ft | 289 kts | 245° |
| 2026-04-25 15:35 | 36.45596 | 28.00531 | 9890 ft | 291 kts | 246° |
| 2026-04-25 15:35 | 36.44932 | 27.98111 | 10438 ft | 305 kts | 247° |
| 2026-04-25 15:36 | 36.43504 | 27.92716 | 11075 ft | 344 kts | 248° |
| 2026-04-25 15:36 | 36.42770 | 27.89865 | 11785 ft | 349 kts | 249° |
| 2026-04-25 15:36 | 36.42034 | 27.86983 | 12557 ft | 352 kts | 249° |
| 2026-04-25 15:37 | 36.41293 | 27.84078 | 13304 ft | 356 kts | 249° |
| 2026-04-25 15:37 | 36.40538 | 27.81134 | 13999 ft | 360 kts | 249° |
| 2026-04-25 15:37 | 36.39773 | 27.78156 | 14643 ft | 364 kts | 249° |
| 2026-04-25 15:37 | 36.39055 | 27.75119 | 15320 ft | 370 kts | 255° |
| 2026-04-25 15:38 | 36.38768 | 27.71923 | 15971 ft | 377 kts | 266° |
| 2026-04-25 15:38 | 36.38965 | 27.68645 | 16611 ft | 384 kts | 276° |
| 2026-04-25 15:38 | 36.39375 | 27.65354 | 17253 ft | 388 kts | 277° |
| 2026-04-25 15:38 | 36.39822 | 27.62035 | 17886 ft | 392 kts | 277° |
| 2026-04-25 15:39 | 36.40274 | 27.58680 | 18461 ft | 396 kts | 277° |
| 2026-04-25 15:39 | 36.40722 | 27.55293 | 19055 ft | 398 kts | 277° |
| 2026-04-25 15:39 | 36.41156 | 27.51936 | 19658 ft | 400 kts | 277° |
| 2026-04-25 15:39 | 36.41595 | 27.48477 | 20262 ft | 402 kts | 276° |
| 2026-04-25 15:40 | 36.42025 | 27.45033 | 20757 ft | 407 kts | 277° |
| 2026-04-25 15:40 | 36.42166 | 27.43903 | 20899 ft | 409 kts | 277° |
| 2026-04-25 15:40 | 36.42886 | 27.38074 | 21816 ft | 413 kts | 277° |
| 2026-04-25 15:40 | 36.43322 | 27.34538 | 22423 ft | 414 kts | 276° |
| 2026-04-25 15:41 | 36.43758 | 27.30992 | 22969 ft | 417 kts | 276° |
| 2026-04-25 15:41 | 36.44196 | 27.27422 | 23498 ft | 420 kts | 276° |
| 2026-04-25 15:41 | 36.44635 | 27.23826 | 23910 ft | 423 kts | 276° |
| 2026-04-25 15:41 | 36.45077 | 27.20205 | 24316 ft | 426 kts | 276° |
| 2026-04-25 15:42 | 36.45521 | 27.16557 | 24721 ft | 429 kts | 277° |
| 2026-04-25 15:42 | 36.45969 | 27.12869 | 24994 ft | 435 kts | 277° |
| 2026-04-25 15:42 | 36.46422 | 27.09136 | 25365 ft | 438 kts | 277° |
| 2026-04-25 15:42 | 36.46875 | 27.05385 | 25807 ft | 440 kts | 277° |
| 2026-04-25 15:43 | 36.47342 | 27.01619 | 26214 ft | 442 kts | 277° |
| 2026-04-25 15:43 | 36.47819 | 26.97835 | 26595 ft | 445 kts | 278° |
| 2026-04-25 15:43 | 36.48298 | 26.94032 | 26950 ft | 447 kts | 278° |
| 2026-04-25 15:43 | 36.48777 | 26.90199 | 27310 ft | 450 kts | 277° |
| 2026-04-25 15:44 | 36.49243 | 26.86342 | 27667 ft | 453 kts | 277° |
| 2026-04-25 15:44 | 36.49696 | 26.82453 | 27949 ft | 457 kts | 278° |
| 2026-04-25 15:44 | 36.50148 | 26.78530 | 28269 ft | 460 kts | 278° |
| 2026-04-25 15:44 | 36.50595 | 26.74646 | 28630 ft | 461 kts | 278° |
| 2026-04-25 15:45 | 36.51050 | 26.70697 | 28981 ft | 463 kts | 278° |
| 2026-04-25 15:45 | 36.51508 | 26.66725 | 29311 ft | 465 kts | 278° |
| 2026-04-25 15:45 | 36.51969 | 26.62732 | 29621 ft | 468 kts | 278° |
| 2026-04-25 15:45 | 36.52124 | 26.61379 | 29727 ft | 468 kts | 278° |
| 2026-04-25 15:46 | 36.53275 | 26.54808 | 30138 ft | 471 kts | 296° |
| 2026-04-25 15:46 | 36.55058 | 26.51413 | 30479 ft | 467 kts | 313° |
| 2026-04-25 15:46 | 36.57438 | 26.48701 | 30802 ft | 463 kts | 328° |
| 2026-04-25 15:46 | 36.60258 | 26.46798 | 31102 ft | 461 kts | 337° |
| 2026-04-25 15:47 | 36.63172 | 26.45132 | 31401 ft | 461 kts | 338° |
| 2026-04-25 15:47 | 36.66101 | 26.43497 | 31730 ft | 460 kts | 338° |
| 2026-04-25 15:47 | 36.69015 | 26.41862 | 32096 ft | 459 kts | 337° |
| 2026-04-25 15:47 | 36.71910 | 26.40211 | 32451 ft | 458 kts | 336° |
| 2026-04-25 15:48 | 36.74802 | 26.38539 | 32742 ft | 458 kts | 336° |
| 2026-04-25 15:48 | 36.77676 | 26.36860 | 33168 ft | 455 kts | 336° |
| 2026-04-25 15:48 | 36.80536 | 26.35181 | 33457 ft | 455 kts | 336° |
| 2026-04-25 15:48 | 36.83401 | 26.33497 | 33754 ft | 454 kts | 336° |
| 2026-04-25 15:49 | 36.86258 | 26.31816 | 34054 ft | 454 kts | 336° |
| 2026-04-25 15:49 | 36.89103 | 26.30142 | 34363 ft | 451 kts | 336° |
| 2026-04-25 15:49 | 36.91945 | 26.28469 | 34573 ft | 452 kts | 336° |
| 2026-04-25 15:49 | 36.94794 | 26.26791 | 34762 ft | 453 kts | 336° |
| 2026-04-25 15:50 | 36.97648 | 26.25109 | 35010 ft | 452 kts | 336° |
| 2026-04-25 15:50 | 37.00476 | 26.23423 | 35373 ft | 448 kts | 335° |
| 2026-04-25 15:50 | 37.03270 | 26.21723 | 35704 ft | 446 kts | 335° |
| 2026-04-25 15:50 | 37.06059 | 26.20013 | 35882 ft | 447 kts | 334° |
| 2026-04-25 15:51 | 37.08851 | 26.18298 | 36051 ft | 448 kts | 335° |
| 2026-04-25 15:51 | 37.09760 | 26.17740 | 36114 ft | 448 kts | 335° |
| 2026-04-25 15:51 | 37.14441 | 26.14865 | 36504 ft | 446 kts | 335° |
| 2026-04-25 15:51 | 37.17228 | 26.13156 | 36730 ft | 446 kts | 334° |
| 2026-04-25 15:52 | 37.20011 | 26.11450 | 36935 ft | 446 kts | 334° |
| 2026-04-25 15:52 | 37.22797 | 26.09741 | 37132 ft | 445 kts | 334° |
| 2026-04-25 15:52 | 37.25579 | 26.08033 | 37326 ft | 445 kts | 334° |
| 2026-04-25 15:52 | 37.28356 | 26.06327 | 37556 ft | 444 kts | 334° |
| 2026-04-25 15:53 | 37.31124 | 26.04625 | 37793 ft | 443 kts | 334° |
| 2026-04-25 15:53 | 37.33887 | 26.02925 | 37922 ft | 441 kts | 334° |
| 2026-04-25 15:53 | 37.39398 | 25.99528 | 37961 ft | 442 kts | 334° |
| 2026-04-25 15:54 | 37.44937 | 25.96109 | 37973 ft | 445 kts | 334° |
| 2026-04-25 15:54 | 37.50486 | 25.92678 | 37974 ft | 450 kts | 334° |
| 2026-04-25 15:55 | 37.56136 | 25.89178 | 37978 ft | 455 kts | 334° |
| 2026-04-25 15:55 | 37.61842 | 25.85640 | 37981 ft | 459 kts | 334° |
| 2026-04-25 15:56 | 37.67585 | 25.82076 | 37984 ft | 462 kts | 334° |
| 2026-04-25 15:56 | 37.73363 | 25.78483 | 37979 ft | 463 kts | 334° |
| 2026-04-25 15:57 | 37.79155 | 25.74874 | 37978 ft | 464 kts | 334° |
| 2026-04-25 15:57 | 37.84948 | 25.71259 | 37977 ft | 465 kts | 334° |
| 2026-04-25 15:58 | 37.90743 | 25.67635 | 37977 ft | 464 kts | 334° |
| 2026-04-25 15:58 | 37.96526 | 25.64012 | 37977 ft | 464 kts | 334° |
| 2026-04-25 15:59 | 38.01323 | 25.61003 | 37973 ft | 463 kts | 334° |
| 2026-04-25 15:59 | 38.07080 | 25.57385 | 37979 ft | 461 kts | 334° |
| 2026-04-25 16:00 | 38.11845 | 25.54386 | 37981 ft | 459 kts | 335° |
| 2026-04-25 16:00 | 38.18522 | 25.50176 | 37989 ft | 457 kts | 334° |
| 2026-04-25 16:01 | 38.24216 | 25.46578 | 37997 ft | 457 kts | 334° |
| 2026-04-25 16:01 | 38.29909 | 25.42977 | 37985 ft | 457 kts | 335° |
| 2026-04-25 16:02 | 38.35595 | 25.39372 | 37986 ft | 457 kts | 335° |
| 2026-04-25 16:02 | 38.41287 | 25.35757 | 37992 ft | 457 kts | 334° |
| 2026-04-25 16:03 | 38.46981 | 25.32134 | 37986 ft | 458 kts | 335° |
| 2026-04-25 16:03 | 38.52677 | 25.28503 | 37990 ft | 458 kts | 335° |
| 2026-04-25 16:04 | 38.58378 | 25.24863 | 37994 ft | 458 kts | 335° |
| 2026-04-25 16:04 | 38.64078 | 25.21217 | 38001 ft | 458 kts | 335° |
| 2026-04-25 16:05 | 38.69784 | 25.17561 | 37996 ft | 458 kts | 335° |
| 2026-04-25 16:06 | 38.78337 | 25.12068 | 37996 ft | 459 kts | 335° |
| 2026-04-25 16:06 | 38.84041 | 25.08397 | 38003 ft | 459 kts | 335° |
| 2026-04-25 16:07 | 38.89740 | 25.04721 | 38003 ft | 459 kts | 335° |
| 2026-04-25 16:07 | 38.95442 | 25.01038 | 38006 ft | 459 kts | 335° |
| 2026-04-25 16:08 | 39.01137 | 24.97351 | 38003 ft | 458 kts | 335° |
| 2026-04-25 16:08 | 39.06819 | 24.93667 | 38001 ft | 457 kts | 335° |
| 2026-04-25 16:09 | 39.12493 | 24.90014 | 38004 ft | 455 kts | 336° |
| 2026-04-25 16:09 | 39.18200 | 24.86489 | 38005 ft | 455 kts | 336° |
| 2026-04-25 16:10 | 39.23904 | 24.82977 | 38005 ft | 454 kts | 336° |
| 2026-04-25 16:10 | 39.29592 | 24.79449 | 38009 ft | 453 kts | 336° |
| 2026-04-25 16:11 | 39.35266 | 24.75913 | 38010 ft | 452 kts | 336° |
| 2026-04-25 16:11 | 39.40891 | 24.72401 | 38008 ft | 452 kts | 336° |
| 2026-04-25 16:12 | 39.46555 | 24.68859 | 38012 ft | 452 kts | 336° |
| 2026-04-25 16:12 | 39.52208 | 24.65319 | 38012 ft | 451 kts | 336° |
| 2026-04-25 16:13 | 39.57858 | 24.61778 | 38011 ft | 451 kts | 336° |
| 2026-04-25 16:13 | 39.63502 | 24.58235 | 38015 ft | 451 kts | 336° |
| 2026-04-25 16:14 | 39.69144 | 24.54686 | 38011 ft | 451 kts | 336° |
| 2026-04-25 16:14 | 39.74782 | 24.51132 | 38001 ft | 451 kts | 336° |
| 2026-04-25 16:15 | 39.80427 | 24.47568 | 38013 ft | 451 kts | 336° |
| 2026-04-25 16:15 | 39.86073 | 24.43996 | 38008 ft | 451 kts | 336° |
| 2026-04-25 16:16 | 39.91722 | 24.40415 | 38018 ft | 452 kts | 336° |
| 2026-04-25 16:16 | 39.97379 | 24.36823 | 37994 ft | 452 kts | 336° |
| 2026-04-25 16:17 | 40.03031 | 24.33228 | 38015 ft | 452 kts | 336° |
| 2026-04-25 16:17 | 40.08697 | 24.29617 | 38009 ft | 453 kts | 336° |
| 2026-04-25 16:18 | 40.14360 | 24.26001 | 38016 ft | 453 kts | 336° |
| 2026-04-25 16:18 | 40.19993 | 24.22397 | 38005 ft | 453 kts | 336° |
| 2026-04-25 16:19 | 40.25660 | 24.18765 | 37999 ft | 453 kts | 336° |
| 2026-04-25 16:19 | 40.31319 | 24.15131 | 38020 ft | 453 kts | 336° |
| 2026-04-25 16:20 | 40.39824 | 24.09656 | 38010 ft | 454 kts | 336° |
| 2026-04-25 16:21 | 40.48321 | 24.04171 | 38012 ft | 453 kts | 336° |
| 2026-04-25 16:21 | 40.53970 | 24.00516 | 38000 ft | 452 kts | 336° |
| 2026-04-25 16:22 | 40.59656 | 23.97018 | 37998 ft | 449 kts | 343° |
| 2026-04-25 16:22 | 40.65694 | 23.95219 | 38009 ft | 445 kts | 352° |
| 2026-04-25 16:23 | 40.71792 | 23.93859 | 38005 ft | 444 kts | 352° |
| 2026-04-25 16:23 | 40.77866 | 23.92465 | 38008 ft | 443 kts | 352° |
| 2026-04-25 16:24 | 40.83933 | 23.91027 | 37995 ft | 443 kts | 352° |
| 2026-04-25 16:24 | 40.89985 | 23.89575 | 38009 ft | 441 kts | 352° |
| 2026-04-25 16:25 | 40.96026 | 23.88123 | 38002 ft | 441 kts | 352° |
| 2026-04-25 16:25 | 41.02050 | 23.86674 | 37997 ft | 440 kts | 352° |
| 2026-04-25 16:26 | 41.08068 | 23.85225 | 37999 ft | 439 kts | 352° |
| 2026-04-25 16:26 | 41.14076 | 23.83775 | 37999 ft | 438 kts | 352° |
| 2026-04-25 16:27 | 41.20037 | 23.82333 | 38002 ft | 439 kts | 352° |
| 2026-04-25 16:27 | 41.26042 | 23.80879 | 37998 ft | 438 kts | 352° |
| 2026-04-25 16:28 | 41.32045 | 23.79439 | 37992 ft | 438 kts | 352° |
| 2026-04-25 16:28 | 41.38086 | 23.78005 | 38002 ft | 438 kts | 352° |
| 2026-04-25 16:29 | 41.44048 | 23.76645 | 37997 ft | 437 kts | 353° |
| 2026-04-25 16:29 | 41.50056 | 23.75410 | 38000 ft | 437 kts | 353° |
| 2026-04-25 16:30 | 41.55092 | 23.74385 | 38001 ft | 437 kts | 353° |
| 2026-04-25 16:30 | 41.62071 | 23.72943 | 37998 ft | 436 kts | 352° |
| 2026-04-25 16:31 | 41.68066 | 23.71691 | 38004 ft | 436 kts | 353° |
| 2026-04-25 16:31 | 41.74065 | 23.70433 | 37994 ft | 436 kts | 352° |
| 2026-04-25 16:32 | 41.80056 | 23.69174 | 37999 ft | 436 kts | 352° |
| 2026-04-25 16:32 | 41.86045 | 23.67914 | 38003 ft | 436 kts | 352° |
| 2026-04-25 16:33 | 41.92035 | 23.66651 | 38011 ft | 436 kts | 352° |
| 2026-04-25 16:33 | 41.98027 | 23.65385 | 38009 ft | 436 kts | 352° |
| 2026-04-25 16:34 | 42.04021 | 23.64116 | 38008 ft | 436 kts | 352° |
| 2026-04-25 16:34 | 42.10009 | 23.62846 | 38017 ft | 435 kts | 352° |
| 2026-04-25 16:35 | 42.15990 | 23.61575 | 38007 ft | 435 kts | 352° |
| 2026-04-25 16:35 | 42.21969 | 23.60303 | 38020 ft | 435 kts | 352° |
| 2026-04-25 16:36 | 42.27954 | 23.59026 | 38010 ft | 435 kts | 352° |
| 2026-04-25 16:36 | 42.33929 | 23.57749 | 38010 ft | 435 kts | 352° |
| 2026-04-25 16:37 | 42.39866 | 23.56478 | 38004 ft | 435 kts | 352° |
| 2026-04-25 16:37 | 42.45835 | 23.55197 | 38008 ft | 434 kts | 352° |
| 2026-04-25 16:38 | 42.51843 | 23.53906 | 37992 ft | 434 kts | 351° |
| 2026-04-25 16:38 | 42.57763 | 23.52631 | 38004 ft | 433 kts | 351° |
| 2026-04-25 16:39 | 42.63721 | 23.51345 | 37996 ft | 433 kts | 351° |
| 2026-04-25 16:39 | 42.69676 | 23.50058 | 38007 ft | 433 kts | 351° |
| 2026-04-25 16:40 | 42.75622 | 23.48770 | 38015 ft | 433 kts | 351° |
| 2026-04-25 16:40 | 42.81565 | 23.47480 | 38013 ft | 432 kts | 351° |
| 2026-04-25 16:41 | 42.87500 | 23.46189 | 38016 ft | 432 kts | 351° |
| 2026-04-25 16:41 | 42.96403 | 23.44249 | 38018 ft | 432 kts | 351° |
| 2026-04-25 16:42 | 43.02335 | 23.42953 | 38009 ft | 432 kts | 350° |
| 2026-04-25 16:42 | 43.08267 | 23.41654 | 38005 ft | 432 kts | 350° |
| 2026-04-25 16:43 | 43.14200 | 23.40352 | 38004 ft | 431 kts | 350° |
| 2026-04-25 16:43 | 43.20122 | 23.39050 | 38009 ft | 431 kts | 350° |
| 2026-04-25 16:44 | 43.26037 | 23.37748 | 38003 ft | 431 kts | 350° |
| 2026-04-25 16:44 | 43.30955 | 23.36662 | 38001 ft | 430 kts | 350° |
| 2026-04-25 16:45 | 43.36861 | 23.35357 | 38005 ft | 430 kts | 349° |
| 2026-04-25 16:45 | 43.42768 | 23.34049 | 37992 ft | 429 kts | 349° |
| 2026-04-25 16:46 | 43.48664 | 23.32740 | 37996 ft | 429 kts | 349° |
| 2026-04-25 16:46 | 43.53561 | 23.31652 | 38008 ft | 429 kts | 349° |
| 2026-04-25 16:47 | 43.60446 | 23.30118 | 37986 ft | 428 kts | 349° |
| 2026-04-25 16:47 | 43.66328 | 23.28805 | 37985 ft | 428 kts | 349° |
| 2026-04-25 16:48 | 43.72199 | 23.27491 | 37978 ft | 427 kts | 349° |
| 2026-04-25 16:48 | 43.78067 | 23.26176 | 37989 ft | 427 kts | 349° |
| 2026-04-25 16:49 | 43.83898 | 23.24640 | 37973 ft | 425 kts | 341° |
| 2026-04-25 16:49 | 43.89366 | 23.21582 | 37972 ft | 424 kts | 336° |
| 2026-04-25 16:50 | 43.94783 | 23.18358 | 37973 ft | 424 kts | 336° |
| 2026-04-25 16:50 | 44.00207 | 23.15153 | 37976 ft | 423 kts | 335° |
| 2026-04-25 16:51 | 44.05633 | 23.11965 | 37967 ft | 423 kts | 335° |
| 2026-04-25 16:51 | 44.10133 | 23.09324 | 37970 ft | 422 kts | 335° |
| 2026-04-25 16:52 | 44.16428 | 23.05625 | 37973 ft | 422 kts | 335° |
| 2026-04-25 16:52 | 44.21836 | 23.02439 | 37975 ft | 422 kts | 335° |
| 2026-04-25 16:53 | 44.29940 | 22.97653 | 37968 ft | 421 kts | 335° |
| 2026-04-25 16:54 | 44.35337 | 22.94457 | 37963 ft | 421 kts | 335° |
| 2026-04-25 16:54 | 44.40731 | 22.91258 | 37967 ft | 422 kts | 335° |
| 2026-04-25 16:55 | 44.46134 | 22.88045 | 37966 ft | 422 kts | 335° |
| 2026-04-25 16:55 | 44.51543 | 22.84823 | 37958 ft | 422 kts | 335° |
| 2026-04-25 16:56 | 44.56949 | 22.81596 | 37961 ft | 422 kts | 335° |
| 2026-04-25 16:56 | 44.62357 | 22.78362 | 37959 ft | 423 kts | 335° |
| 2026-04-25 16:57 | 44.67770 | 22.75118 | 37970 ft | 423 kts | 335° |
| 2026-04-25 16:57 | 44.73176 | 22.71872 | 37950 ft | 422 kts | 335° |
| 2026-04-25 16:58 | 44.78571 | 22.68625 | 37966 ft | 421 kts | 335° |
| 2026-04-25 16:58 | 44.83953 | 22.65380 | 37970 ft | 421 kts | 335° |
| 2026-04-25 16:59 | 44.89331 | 22.62130 | 37992 ft | 420 kts | 334° |
| 2026-04-25 16:59 | 44.94703 | 22.58879 | 37975 ft | 419 kts | 334° |
| 2026-04-25 17:00 | 45.00058 | 22.55630 | 37975 ft | 418 kts | 334° |
| 2026-04-25 17:00 | 45.05398 | 22.52384 | 37980 ft | 417 kts | 334° |
| 2026-04-25 17:01 | 45.10721 | 22.49141 | 37984 ft | 417 kts | 334° |
| 2026-04-25 17:01 | 45.16052 | 22.45885 | 37984 ft | 418 kts | 334° |
| 2026-04-25 17:02 | 45.21398 | 22.42615 | 37989 ft | 419 kts | 334° |
| 2026-04-25 17:02 | 45.26744 | 22.39338 | 37997 ft | 419 kts | 334° |
| 2026-04-25 17:03 | 45.32057 | 22.36076 | 37985 ft | 419 kts | 334° |
| 2026-04-25 17:03 | 45.37397 | 22.32789 | 38004 ft | 418 kts | 333° |
| 2026-04-25 17:04 | 45.42739 | 22.29495 | 37982 ft | 418 kts | 333° |
| 2026-04-25 17:04 | 45.48066 | 22.26203 | 37972 ft | 417 kts | 333° |
| 2026-04-25 17:05 | 45.53390 | 22.22906 | 37974 ft | 417 kts | 333° |
| 2026-04-25 17:05 | 45.61364 | 22.17952 | 37993 ft | 417 kts | 333° |
| 2026-04-25 17:06 | 45.66685 | 22.14642 | 37976 ft | 417 kts | 333° |
| 2026-04-25 17:06 | 45.72004 | 22.11324 | 37963 ft | 417 kts | 333° |
| 2026-04-25 17:07 | 45.77323 | 22.08000 | 37956 ft | 417 kts | 333° |
| 2026-04-25 17:07 | 45.82636 | 22.04672 | 37961 ft | 417 kts | 333° |
| 2026-04-25 17:08 | 45.87954 | 22.01333 | 37970 ft | 417 kts | 333° |
| 2026-04-25 17:08 | 45.93270 | 21.97989 | 37957 ft | 417 kts | 333° |
| 2026-04-25 17:09 | 45.98553 | 21.94660 | 37959 ft | 417 kts | 333° |
| 2026-04-25 17:09 | 46.03867 | 21.91303 | 37953 ft | 417 kts | 332° |
| 2026-04-25 17:10 | 46.09180 | 21.87939 | 37980 ft | 417 kts | 332° |
| 2026-04-25 17:10 | 46.14499 | 21.84565 | 37954 ft | 418 kts | 332° |
| 2026-04-25 17:11 | 46.19819 | 21.81183 | 37945 ft | 418 kts | 332° |
| 2026-04-25 17:11 | 46.25136 | 21.77796 | 37950 ft | 418 kts | 332° |
| 2026-04-25 17:12 | 46.30454 | 21.74401 | 37949 ft | 418 kts | 332° |
| 2026-04-25 17:12 | 46.35773 | 21.70998 | 37959 ft | 418 kts | 332° |
| 2026-04-25 17:13 | 46.39329 | 21.68719 | 37942 ft | 418 kts | 332° |
| 2026-04-25 17:13 | 46.46403 | 21.64175 | 37941 ft | 417 kts | 332° |
| 2026-04-25 17:14 | 46.51711 | 21.60757 | 37938 ft | 417 kts | 332° |
| 2026-04-25 17:14 | 46.57016 | 21.57333 | 37938 ft | 417 kts | 332° |
| 2026-04-25 17:15 | 46.62288 | 21.53923 | 37942 ft | 418 kts | 331° |
| 2026-04-25 17:15 | 46.67594 | 21.50486 | 37935 ft | 418 kts | 331° |
| 2026-04-25 17:16 | 46.73054 | 21.47484 | 37940 ft | 421 kts | 336° |
| 2026-04-25 17:16 | 46.78635 | 21.44884 | 37930 ft | 422 kts | 337° |
| 2026-04-25 17:17 | 46.84225 | 21.42283 | 37931 ft | 421 kts | 337° |
| 2026-04-25 17:17 | 46.89801 | 21.39636 | 37929 ft | 421 kts | 336° |
| 2026-04-25 17:18 | 46.95371 | 21.36960 | 37929 ft | 421 kts | 336° |
| 2026-04-25 17:18 | 47.00942 | 21.34270 | 37929 ft | 422 kts | 336° |
| 2026-04-25 17:19 | 47.06511 | 21.31574 | 37948 ft | 422 kts | 336° |
| 2026-04-25 17:19 | 47.12085 | 21.28871 | 37933 ft | 422 kts | 336° |
| 2026-04-25 17:20 | 47.17660 | 21.26162 | 37909 ft | 422 kts | 336° |
| 2026-04-25 17:20 | 47.23230 | 21.23449 | 37924 ft | 421 kts | 336° |
| 2026-04-25 17:21 | 47.28793 | 21.20734 | 37925 ft | 421 kts | 336° |
| 2026-04-25 17:21 | 47.34359 | 21.18010 | 37933 ft | 422 kts | 336° |
| 2026-04-25 17:22 | 47.38047 | 21.16202 | 37920 ft | 422 kts | 336° |
| 2026-04-25 17:22 | 47.45516 | 21.12533 | 37920 ft | 423 kts | 336° |
| 2026-04-25 17:23 | 47.51057 | 21.09804 | 37914 ft | 423 kts | 336° |
| 2026-04-25 17:23 | 47.56644 | 21.07047 | 37935 ft | 423 kts | 336° |
| 2026-04-25 17:24 | 47.62238 | 21.04279 | 37918 ft | 424 kts | 336° |
| 2026-04-25 17:24 | 47.67830 | 21.01507 | 37901 ft | 424 kts | 336° |
| 2026-04-25 17:25 | 47.73429 | 20.98724 | 37903 ft | 424 kts | 336° |
| 2026-04-25 17:25 | 47.79021 | 20.95939 | 37897 ft | 424 kts | 336° |
| 2026-04-25 17:26 | 47.84614 | 20.93147 | 37906 ft | 424 kts | 336° |
| 2026-04-25 17:26 | 47.90203 | 20.90350 | 37892 ft | 424 kts | 336° |
| 2026-04-25 17:27 | 47.95797 | 20.87545 | 37894 ft | 424 kts | 336° |
| 2026-04-25 17:27 | 47.99536 | 20.85667 | 37883 ft | 424 kts | 336° |
| 2026-04-25 17:28 | 48.06977 | 20.81919 | 37917 ft | 424 kts | 336° |
| 2026-04-25 17:28 | 48.12566 | 20.79097 | 37898 ft | 424 kts | 336° |
| 2026-04-25 17:29 | 48.18161 | 20.76265 | 37885 ft | 424 kts | 336° |
| 2026-04-25 17:29 | 48.23758 | 20.73426 | 37889 ft | 424 kts | 336° |
| 2026-04-25 17:30 | 48.29350 | 20.70583 | 37880 ft | 424 kts | 336° |
| 2026-04-25 17:30 | 48.34871 | 20.67770 | 37977 ft | 420 kts | 335° |
| 2026-04-25 17:31 | 48.40433 | 20.64927 | 37877 ft | 423 kts | 335° |
| 2026-04-25 17:31 | 48.46018 | 20.62066 | 37873 ft | 425 kts | 335° |
| 2026-04-25 17:32 | 48.51590 | 20.59206 | 37880 ft | 426 kts | 335° |
| 2026-04-25 17:32 | 48.57203 | 20.56320 | 37904 ft | 427 kts | 335° |
| 2026-04-25 17:33 | 48.62839 | 20.53413 | 37903 ft | 428 kts | 335° |
| 2026-04-25 17:33 | 48.68486 | 20.50495 | 37900 ft | 429 kts | 335° |
| 2026-04-25 17:34 | 48.73216 | 20.48046 | 37896 ft | 429 kts | 335° |
| 2026-04-25 17:34 | 48.78862 | 20.45116 | 37909 ft | 429 kts | 335° |
| 2026-04-25 17:35 | 48.84463 | 20.42201 | 37895 ft | 428 kts | 335° |
| 2026-04-25 17:35 | 48.90084 | 20.39271 | 37909 ft | 426 kts | 335° |
| 2026-04-25 17:36 | 48.95683 | 20.36343 | 37921 ft | 426 kts | 335° |
| 2026-04-25 17:36 | 49.01277 | 20.33411 | 37915 ft | 425 kts | 335° |
| 2026-04-25 17:37 | 49.06861 | 20.30478 | 37940 ft | 424 kts | 335° |
| 2026-04-25 17:37 | 49.12445 | 20.27536 | 37906 ft | 424 kts | 335° |
| 2026-04-25 17:38 | 49.17083 | 20.25088 | 37908 ft | 424 kts | 335° |
| 2026-04-25 17:38 | 49.23600 | 20.21641 | 37918 ft | 424 kts | 335° |
| 2026-04-25 17:39 | 49.29271 | 20.19033 | 37909 ft | 434 kts | 347° |
| 2026-04-25 17:39 | 49.35394 | 20.19353 | 37913 ft | 452 kts | 7° |
| 2026-04-25 17:40 | 49.41466 | 20.22226 | 37912 ft | 458 kts | 12° |
| 2026-04-25 17:40 | 49.47511 | 20.25373 | 37916 ft | 459 kts | 12° |
| 2026-04-25 17:41 | 49.53576 | 20.28467 | 37934 ft | 459 kts | 12° |
| 2026-04-25 17:41 | 49.59649 | 20.31509 | 37916 ft | 459 kts | 11° |
| 2026-04-25 17:42 | 49.65726 | 20.34545 | 37904 ft | 460 kts | 11° |
| 2026-04-25 17:42 | 49.71815 | 20.37588 | 37898 ft | 460 kts | 11° |
| 2026-04-25 17:43 | 49.77889 | 20.40635 | 37920 ft | 459 kts | 11° |
| 2026-04-25 17:43 | 49.83972 | 20.43697 | 37906 ft | 459 kts | 11° |
| 2026-04-25 17:44 | 49.90049 | 20.46766 | 37888 ft | 459 kts | 12° |
| 2026-04-25 17:44 | 49.96125 | 20.49842 | 37890 ft | 459 kts | 12° |
| 2026-04-25 17:45 | 50.01137 | 20.52386 | 37885 ft | 459 kts | 11° |
| 2026-04-25 17:45 | 50.08227 | 20.55989 | 37879 ft | 458 kts | 11° |
| 2026-04-25 17:46 | 50.14345 | 20.57629 | 37888 ft | 444 kts | 357° |
| 2026-04-25 17:46 | 50.17416 | 20.57909 | 37778 ft | 438 kts | 356° |
| 2026-04-25 17:46 | 50.20439 | 20.58162 | 37288 ft | 434 kts | 356° |
| 2026-04-25 17:47 | 50.23456 | 20.58419 | 36529 ft | 436 kts | 356° |
| 2026-04-25 17:47 | 50.26500 | 20.58694 | 35691 ft | 440 kts | 356° |
| 2026-04-25 17:47 | 50.29539 | 20.58990 | 35251 ft | 434 kts | 356° |
| 2026-04-25 17:47 | 50.32546 | 20.59299 | 34776 ft | 433 kts | 356° |
| 2026-04-25 17:48 | 50.38666 | 20.59923 | 33956 ft | 448 kts | 357° |
| 2026-04-25 17:48 | 50.41789 | 20.60247 | 33472 ft | 450 kts | 357° |
| 2026-04-25 17:48 | 50.44908 | 20.60576 | 33020 ft | 449 kts | 357° |
| 2026-04-25 17:49 | 50.48026 | 20.60904 | 32555 ft | 449 kts | 357° |
| 2026-04-25 17:49 | 50.51151 | 20.61231 | 32105 ft | 450 kts | 357° |
| 2026-04-25 17:49 | 50.54274 | 20.61557 | 31669 ft | 450 kts | 357° |
| 2026-04-25 17:49 | 50.57395 | 20.61882 | 31252 ft | 451 kts | 357° |
| 2026-04-25 17:50 | 50.60537 | 20.62209 | 30818 ft | 452 kts | 357° |
| 2026-04-25 17:50 | 50.63677 | 20.62536 | 30388 ft | 453 kts | 357° |
| 2026-04-25 17:50 | 50.66833 | 20.62865 | 29962 ft | 455 kts | 357° |
| 2026-04-25 17:50 | 50.69995 | 20.63196 | 29507 ft | 457 kts | 357° |
| 2026-04-25 17:51 | 50.73176 | 20.63529 | 28980 ft | 458 kts | 357° |
| 2026-04-25 17:51 | 50.76359 | 20.63864 | 28525 ft | 459 kts | 357° |
| 2026-04-25 17:51 | 50.79544 | 20.64199 | 28050 ft | 460 kts | 357° |
| 2026-04-25 17:51 | 50.82745 | 20.64537 | 27578 ft | 461 kts | 358° |
| 2026-04-25 17:52 | 50.85949 | 20.64875 | 27114 ft | 463 kts | 358° |
| 2026-04-25 17:52 | 50.88077 | 20.65099 | 26800 ft | 464 kts | 358° |
| 2026-04-25 17:52 | 50.92396 | 20.65556 | 26189 ft | 465 kts | 357° |
| 2026-04-25 17:52 | 50.95628 | 20.65899 | 25707 ft | 467 kts | 357° |
| 2026-04-25 17:53 | 50.98872 | 20.66243 | 25233 ft | 468 kts | 357° |
| 2026-04-25 17:53 | 51.02121 | 20.66588 | 24756 ft | 468 kts | 357° |
| 2026-04-25 17:53 | 51.05365 | 20.66935 | 24279 ft | 465 kts | 357° |
| 2026-04-25 17:53 | 51.08560 | 20.67281 | 23822 ft | 456 kts | 357° |
| 2026-04-25 17:54 | 51.11710 | 20.67621 | 23345 ft | 452 kts | 357° |
| 2026-04-25 17:54 | 51.14840 | 20.67953 | 22805 ft | 450 kts | 357° |
| 2026-04-25 17:54 | 51.17957 | 20.68284 | 22337 ft | 448 kts | 356° |
| 2026-04-25 17:54 | 51.21055 | 20.68614 | 21846 ft | 445 kts | 356° |
| 2026-04-25 17:55 | 51.24122 | 20.68944 | 21370 ft | 437 kts | 356° |
| 2026-04-25 17:55 | 51.27123 | 20.69611 | 20903 ft | 442 kts | 9° |
| 2026-04-25 17:55 | 51.29951 | 20.71693 | 20594 ft | 457 kts | 26° |
| 2026-04-25 17:55 | 51.32438 | 20.74949 | 20294 ft | 465 kts | 36° |
| 2026-04-25 17:56 | 51.34908 | 20.78208 | 19889 ft | 455 kts | 27° |
| 2026-04-25 17:56 | 51.37608 | 20.80722 | 19550 ft | 447 kts | 21° |
| 2026-04-25 17:56 | 51.40348 | 20.83083 | 19251 ft | 448 kts | 20° |
| 2026-04-25 17:56 | 51.43083 | 20.85440 | 18904 ft | 445 kts | 20° |
| 2026-04-25 17:57 | 51.45798 | 20.87807 | 18567 ft | 443 kts | 21° |
| 2026-04-25 17:57 | 51.48493 | 20.90183 | 18247 ft | 441 kts | 21° |
| 2026-04-25 17:57 | 51.51167 | 20.92561 | 17900 ft | 439 kts | 21° |
| 2026-04-25 17:57 | 51.52031 | 20.93332 | 17780 ft | 438 kts | 21° |
| 2026-04-25 17:58 | 51.56481 | 20.97322 | 17209 ft | 435 kts | 21° |
| 2026-04-25 17:58 | 51.59083 | 20.99663 | 16890 ft | 433 kts | 21° |
| 2026-04-25 17:58 | 51.61707 | 21.02027 | 16568 ft | 431 kts | 21° |
| 2026-04-25 17:58 | 51.64357 | 21.04415 | 16245 ft | 430 kts | 21° |
| 2026-04-25 17:59 | 51.66957 | 21.06762 | 15929 ft | 428 kts | 21° |
| 2026-04-25 17:59 | 51.69551 | 21.09109 | 15617 ft | 427 kts | 21° |
| 2026-04-25 17:59 | 51.72098 | 21.11415 | 15306 ft | 425 kts | 22° |
| 2026-04-25 17:59 | 51.74670 | 21.13746 | 14999 ft | 423 kts | 22° |
| 2026-04-25 18:00 | 51.77229 | 21.16069 | 14694 ft | 421 kts | 22° |
| 2026-04-25 18:00 | 51.79782 | 21.18389 | 14391 ft | 419 kts | 22° |
| 2026-04-25 18:00 | 51.82317 | 21.20697 | 14117 ft | 418 kts | 21° |
| 2026-04-25 18:00 | 51.84849 | 21.23003 | 13789 ft | 417 kts | 21° |
| 2026-04-25 18:01 | 51.87366 | 21.25299 | 13482 ft | 414 kts | 21° |
| 2026-04-25 18:01 | 51.89867 | 21.27583 | 13133 ft | 412 kts | 22° |
| 2026-04-25 18:01 | 51.92360 | 21.29864 | 12807 ft | 409 kts | 22° |
| 2026-04-25 18:01 | 51.94836 | 21.32095 | 12482 ft | 401 kts | 19° |
| 2026-04-25 18:02 | 51.97414 | 21.33322 | 11924 ft | 376 kts | 356° |
| 2026-04-25 18:02 | 51.99912 | 21.32829 | 11359 ft | 354 kts | 338° |
| 2026-04-25 18:02 | 52.02193 | 21.31444 | 10539 ft | 349 kts | 330° |
| 2026-04-25 18:02 | 52.04393 | 21.29775 | 9803 ft | 349 kts | 329° |
| 2026-04-25 18:03 | 52.06524 | 21.28150 | 9425 ft | 330 kts | 329° |
| 2026-04-25 18:03 | 52.08551 | 21.26609 | 9101 ft | 314 kts | 329° |
| 2026-04-25 18:03 | 52.10471 | 21.25155 | 8799 ft | 296 kts | 329° |
| 2026-04-25 18:03 | 52.12303 | 21.23765 | 8545 ft | 286 kts | 329° |
| 2026-04-25 18:04 | 52.14084 | 21.22415 | 8294 ft | 279 kts | 329° |
| 2026-04-25 18:04 | 52.15823 | 21.21102 | 8054 ft | 272 kts | 329° |
| 2026-04-25 18:04 | 52.17520 | 21.19824 | 7824 ft | 266 kts | 329° |
| 2026-04-25 18:04 | 52.19177 | 21.18577 | 7591 ft | 260 kts | 329° |
| 2026-04-25 18:05 | 52.20802 | 21.17355 | 7370 ft | 254 kts | 329° |
| 2026-04-25 18:05 | 52.22397 | 21.16155 | 7150 ft | 251 kts | 329° |
| 2026-04-25 18:05 | 52.23970 | 21.14971 | 6938 ft | 249 kts | 329° |
| 2026-04-25 18:05 | 52.25547 | 21.13782 | 6724 ft | 249 kts | 330° |
| 2026-04-25 18:06 | 52.27105 | 21.12611 | 6662 ft | 243 kts | 330° |
| 2026-04-25 18:06 | 52.28649 | 21.11447 | 6492 ft | 246 kts | 330° |
| 2026-04-25 18:06 | 52.30218 | 21.10261 | 6297 ft | 250 kts | 330° |
| 2026-04-25 18:06 | 52.31804 | 21.09063 | 6055 ft | 253 kts | 330° |
| 2026-04-25 18:07 | 52.33403 | 21.07856 | 5807 ft | 253 kts | 330° |
| 2026-04-25 18:07 | 52.34998 | 21.06652 | 5597 ft | 253 kts | 330° |
| 2026-04-25 18:07 | 52.36595 | 21.05451 | 5361 ft | 253 kts | 330° |
| 2026-04-25 18:07 | 52.38196 | 21.04244 | 5128 ft | 252 kts | 330° |
| 2026-04-25 18:08 | 52.39758 | 21.03064 | 4902 ft | 249 kts | 330° |
| 2026-04-25 18:08 | 52.41317 | 21.01884 | 4681 ft | 244 kts | 330° |
| 2026-04-25 18:08 | 52.42847 | 21.00725 | 4461 ft | 240 kts | 330° |
| 2026-04-25 18:08 | 52.44347 | 20.99586 | 4257 ft | 236 kts | 329° |
| 2026-04-25 18:09 | 52.45821 | 20.98462 | 4049 ft | 231 kts | 327° |
| 2026-04-25 18:09 | 52.46958 | 20.96780 | 3830 ft | 218 kts | 291° |
| 2026-04-25 18:09 | 52.47255 | 20.94409 | 3677 ft | 210 kts | 278° |
| 2026-04-25 18:09 | 52.47333 | 20.93614 | 3605 ft | 209 kts | 279° |
| 2026-04-25 18:10 | 52.47388 | 20.89764 | 3327 ft | 198 kts | 266° |
| 2026-04-25 18:10 | 52.47226 | 20.87570 | 3124 ft | 189 kts | 264° |
| 2026-04-25 18:10 | 52.47040 | 20.85473 | 2921 ft | 181 kts | 264° |
| 2026-04-25 18:10 | 52.46855 | 20.83506 | 2683 ft | 169 kts | 264° |
| 2026-04-25 18:11 | 52.46680 | 20.81659 | 2447 ft | 160 kts | 264° |
| 2026-04-25 18:11 | 52.46511 | 20.79880 | 2197 ft | 155 kts | 264° |
| 2026-04-25 18:11 | 52.46350 | 20.78190 | 1968 ft | 145 kts | 264° |
| 2026-04-25 18:11 | 52.46202 | 20.76621 | 1741 ft | 134 kts | 264° |
| 2026-04-25 18:12 | 52.46063 | 20.75156 | 1561 ft | 128 kts | 266° |
| 2026-04-25 18:12 | 52.45924 | 20.73730 | 1367 ft | 125 kts | 260° |
| 2026-04-25 18:12 | 52.45763 | 20.72273 | 1114 ft | 135 kts | 265° |
| 2026-04-25 18:12 | 52.45647 | 20.70766 | 883 ft | 133 kts | 262° |
| 2026-04-25 18:13 | 52.45502 | 20.69275 | 659 ft | 136 kts | 261° |
| 2026-04-25 18:13 | 52.45358 | 20.67703 | 465 ft | 143 kts | 262° |
| 2026-04-25 18:13 | 52.45209 | 20.66132 | 351 ft | 131 kts | 261° |
| 2026-04-25 18:14 | 52.45051 | 20.64447 | 334 ft | 11 kts | 271° |
| 2026-04-25 18:14 | 52.44993 | 20.64386 | 338 ft | 11 kts | 184° |
| 2026-04-25 18:14 | 52.44918 | 20.64384 | 334 ft | 11 kts | 182° |
| 2026-04-25 18:14 | 52.44845 | 20.64376 | 333 ft | 10 kts | 185° |
| 2026-04-25 18:15 | 52.44775 | 20.64370 | 335 ft | 10 kts | 182° |
| 2026-04-25 18:15 | 52.44714 | 20.64403 | 337 ft | 10 kts | 117° |
| 2026-04-25 18:15 | 52.44720 | 20.64517 | 335 ft | 11 kts | 81° |
| 2026-04-25 18:15 | 52.44737 | 20.64687 | 333 ft | 18 kts | 80° |
| 2026-04-25 18:16 | 52.44754 | 20.64864 | 335 ft | 15 kts | 81° |
| 2026-04-25 18:16 | 52.44769 | 20.65027 | 335 ft | 14 kts | 81° |
| 2026-04-25 18:16 | 52.44775 | 20.65278 | 332 ft | 5 kts | 172° |
| 2026-04-25 18:17 | 52.44748 | 20.65261 | 334 ft | 3 kts | 206° |
| 2026-04-25 18:17 | 52.44747 | 20.65260 | 334 ft | 0 kts | 206° |